Time;durP1;ratioP1;P1;durP2;ratioP2;P2;SDS_P1;SDS_P2;PMS_P1;PMS_P2;Temp;Humidity;BMP_temperature;BMP_pressure;BME280_temperature;BME280_humidity;BME280_pressure;Samples;Min_cycle;Max_cycle;Signal;HPM_P1;HPM_P2
2023/03/22 00:01:14;;;;;;;30.05;18.67;;;8.10;99.90;;;;;;5009966;28;20466;-57
2023/03/22 00:03:39;;;;;;;28.55;19.17;;;8.20;99.90;;;;;;5009059;28;20037;-57
2023/03/22 00:06:06;;;;;;;14.57;12.93;;;8.20;99.90;;;;;;5008925;28;20033;-58
2023/03/22 00:08:32;;;;;;;15.07;11.60;;;8.10;99.90;;;;;;5009485;28;20038;-58
2023/03/22 00:10:58;;;;;;;20.08;10.38;;;8.10;99.90;;;;;;5008579;28;20117;-58
2023/03/22 00:13:24;;;;;;;21.73;8.73;;;7.90;99.90;;;;;;5009223;28;20109;-58
2023/03/22 00:15:49;;;;;;;8.57;7.75;;;7.80;99.90;;;;;;5009153;28;20029;-57
2023/03/22 00:18:15;;;;;;;12.63;8.80;;;7.70;99.90;;;;;;5008483;28;20534;-58
2023/03/22 00:20:53;;;;;;;13.27;11.77;;;7.60;99.90;;;;;;5008789;28;20411;-58
2023/03/22 00:23:19;;;;;;;15.38;13.80;;;7.60;99.90;;;;;;5007202;28;20038;-58
2023/03/22 00:25:46;;;;;;;13.52;12.30;;;7.50;99.90;;;;;;5006092;28;20397;-58
2023/03/22 00:28:13;;;;;;;14.55;12.07;;;7.50;99.90;;;;;;5007109;28;20026;-59
2023/03/22 00:30:39;;;;;;;15.90;11.95;;;7.50;99.90;;;;;;5010150;28;20026;-59
2023/03/22 00:33:05;;;;;;;13.95;11.73;;;7.50;99.90;;;;;;5008398;28;20038;-58
2023/03/22 00:35:31;;;;;;;20.17;10.98;;;7.40;99.90;;;;;;5008936;28;20034;-58
2023/03/22 00:38:04;;;;;;;17.85;11.55;;;7.40;99.90;;;;;;5009052;28;20109;-59
2023/03/22 00:40:30;;;;;;;14.73;11.02;;;7.40;99.90;;;;;;5008634;28;20026;-59
2023/03/22 00:42:56;;;;;;;20.00;12.00;;;7.30;99.90;;;;;;5009061;28;20049;-58
2023/03/22 00:45:21;;;;;;;20.45;11.15;;;7.30;99.90;;;;;;5007309;28;20100;-58
2023/03/22 00:47:47;;;;;;;122.57;11.73;;;7.30;99.90;;;;;;5008429;28;20034;-58
2023/03/22 00:50:13;;;;;;;159.15;8.90;;;7.20;99.90;;;;;;5007848;28;20121;-58
2023/03/22 00:52:38;;;;;;;156.45;8.70;;;7.10;99.90;;;;;;5008072;28;20405;-57
2023/03/22 00:55:04;;;;;;;416.88;13.85;;;7.00;99.90;;;;;;5008557;28;20105;-56
2023/03/22 00:57:30;;;;;;;164.05;8.00;;;6.90;99.90;;;;;;5007358;28;20042;-58
2023/03/22 00:59:57;;;;;;;145.52;7.45;;;6.80;99.90;;;;;;5008413;28;20040;-61
2023/03/22 01:02:28;;;;;;;97.65;6.38;;;6.70;99.90;;;;;;5007640;28;20445;-61
2023/03/22 01:04:54;;;;;;;;;;;6.60;99.90;;;;;;5008474;28;20022;-61
2023/03/22 01:07:20;;;;;;;57.97;5.45;;;6.50;99.90;;;;;;5007620;28;19916;-60
2023/03/22 01:09:47;;;;;;;44.85;5.57;;;6.50;99.90;;;;;;5009113;28;20057;-60
2023/03/22 01:12:14;;;;;;;4.40;4.00;;;6.40;99.90;;;;;;5010074;28;20517;-61
2023/03/22 01:14:40;;;;;;;4.93;4.53;;;6.30;99.90;;;;;;5008011;28;20113;-61
2023/03/22 01:17:06;;;;;;;18.05;4.50;;;6.30;99.90;;;;;;5008639;28;20125;-60
2023/03/22 01:19:33;;;;;;;93.88;8.23;;;6.20;99.90;;;;;;5007636;28;20057;-61
2023/03/22 01:21:58;;;;;;;50.25;7.13;;;6.20;99.90;;;;;;5008012;28;20117;-61
2023/03/22 01:24:24;;;;;;;86.60;9.85;;;6.20;99.90;;;;;;5007643;28;20148;-62
2023/03/22 01:26:50;;;;;;;117.05;10.48;;;6.20;99.90;;;;;;5007480;28;20034;-61
2023/03/22 01:29:16;;;;;;;109.18;10.65;;;6.20;99.90;;;;;;5008003;28;20029;-61
2023/03/22 01:31:42;;;;;;;57.55;13.05;;;6.20;99.90;;;;;;5007223;28;20029;-61
2023/03/22 01:34:08;;;;;;;34.13;14.60;;;6.20;99.90;;;;;;5008421;28;20033;-61
2023/03/22 01:36:34;;;;;;;18.13;12.35;;;6.20;99.90;;;;;;5008113;28;20114;-61
2023/03/22 01:39:00;;;;;;;12.77;9.23;;;6.20;99.90;;;;;;5008049;28;20200;-61
2023/03/22 01:41:26;;;;;;;11.70;8.73;;;6.20;99.90;;;;;;5007867;28;20117;-59
2023/03/22 01:44:18;;;;;;;9.77;8.75;;;6.20;99.90;;;;;;5007112;28;20033;-61
2023/03/22 01:46:47;;;;;;;12.23;10.52;;;6.20;99.90;;;;;;5007755;28;20030;-61
2023/03/22 01:49:24;;;;;;;12.13;9.98;;;6.20;99.90;;;;;;5006787;28;20022;-61
2023/03/22 01:51:54;;;;;;;12.10;10.00;;;6.20;99.90;;;;;;4991108;28;20028;-61
2023/03/22 01:54:42;;;;;;;20.25;12.93;;;6.20;99.90;;;;;;5007617;28;20044;-60
2023/03/22 01:57:08;;;;;;;12.30;10.43;;;6.10;99.90;;;;;;5007367;28;20030;-60
2023/03/22 01:59:34;;;;;;;13.73;11.35;;;6.10;99.90;;;;;;5007963;28;20124;-61
2023/03/22 02:02:01;;;;;;;13.93;11.23;;;6.10;99.90;;;;;;5006789;28;20465;-60
2023/03/22 02:04:33;;;;;;;28.85;14.77;;;6.10;99.90;;;;;;5006155;28;20057;-60
2023/03/22 02:07:08;;;;;;;53.97;18.13;;;6.10;99.90;;;;;;5007623;28;20022;-61
2023/03/22 02:09:40;;;;;;;43.63;16.88;;;6.10;99.90;;;;;;4969719;28;20053;-57
2023/03/22 02:12:24;;;;;;;;;;;6.10;99.90;;;;;;5008019;28;20057;-60
2023/03/22 02:15:02;;;;;;;43.53;15.65;;;6.10;99.90;;;;;;5006675;28;20297;-58
2023/03/22 02:17:42;;;;;;;419.27;25.08;;;6.00;99.90;;;;;;5007293;28;20034;-62
2023/03/22 02:20:20;;;;;;;13.73;9.05;;;5.90;99.90;;;;;;5007377;28;20037;-62
2023/03/22 02:23:27;;;;;;;234.65;15.73;;;5.80;99.90;;;;;;5007457;28;20096;-60
2023/03/22 02:26:11;;;;;;;14.68;9.75;;;5.60;99.90;;;;;;5006248;28;20400;-60
2023/03/22 02:28:42;;;;;;;16.92;8.65;;;5.50;99.90;;;;;;5007199;28;20041;-60
2023/03/22 02:31:26;;;;;;;50.42;10.32;;;5.50;99.90;;;;;;5006372;28;20107;-62
2023/03/22 02:34:43;;;;;;;33.67;9.88;;;5.50;99.90;;;;;;4989741;28;20040;-60
2023/03/22 02:37:49;;;;;;;50.90;8.88;;;5.50;99.90;;;;;;4951077;28;20129;-59
2023/03/22 02:40:33;;;;;;;25.90;7.18;;;5.50;99.90;;;;;;4946261;29;20522;-61
2023/03/22 02:43:20;;;;;;;17.90;8.50;;;5.50;99.90;;;;;;5007196;28;20036;-60
2023/03/22 02:46:00;;;;;;;13.43;8.02;;;5.50;99.90;;;;;;5010808;28;20117;-61
2023/03/22 02:48:45;;;;;;;38.63;8.40;;;5.50;99.90;;;;;;5008301;28;20058;-61
2023/03/22 02:51:23;;;;;;;12.60;7.68;;;5.40;99.90;;;;;;4980209;28;20026;-59
2023/03/22 02:54:00;;;;;;;20.55;8.48;;;5.40;99.90;;;;;;5012103;28;20064;-60
2023/03/22 02:56:38;;;;;;;8.45;7.68;;;5.40;99.90;;;;;;5011446;28;20045;-59
2023/03/22 02:59:06;;;;;;;7.63;6.63;;;5.30;99.90;;;;;;5010934;28;20046;-58
2023/03/22 03:01:50;;;;;;;13.07;7.00;;;5.30;99.90;;;;;;5009684;28;20117;-60
2023/03/22 03:04:30;;;;;;;10.75;6.20;;;5.20;99.90;;;;;;5010367;28;20161;-61
2023/03/22 03:07:03;;;;;;;8.10;7.00;;;5.10;99.90;;;;;;5012254;28;20036;-60
2023/03/22 03:09:30;;;;;;;8.57;6.93;;;5.10;99.90;;;;;;5010937;28;20034;-61
2023/03/22 03:11:56;;;;;;;7.63;6.93;;;5.00;99.90;;;;;;5009290;28;20026;-61
2023/03/22 03:14:31;;;;;;;7.50;6.70;;;5.00;99.90;;;;;;5010469;28;20730;-60
2023/03/22 03:17:05;;;;;;;10.13;8.38;;;5.10;99.90;;;;;;5009941;28;20045;-60
2023/03/22 03:19:40;;;;;;;11.43;8.65;;;5.10;99.90;;;;;;5009506;28;20058;-60
2023/03/22 03:22:46;;;;;;;11.38;8.40;;;5.10;99.90;;;;;;5012099;28;20094;-60
2023/03/22 03:25:42;;;;;;;12.95;7.78;;;5.10;99.90;;;;;;4972096;28;20095;-60
2023/03/22 03:28:37;;;;;;;9.55;6.50;;;5.10;99.90;;;;;;5001754;28;20026;-60
2023/03/22 03:31:08;;;;;;;13.85;8.93;;;5.10;99.90;;;;;;5010690;28;20022;-61
2023/03/22 03:33:35;;;;;;;;;;;5.20;99.90;;;;;;5011748;28;20038;-61
2023/03/22 03:36:08;;;;;;;12.57;8.75;;;5.30;99.90;;;;;;5010108;28;19914;-61
2023/03/22 03:38:39;;;;;;;27.90;10.90;;;5.30;99.90;;;;;;5010296;28;20506;-60
2023/03/22 03:41:22;;;;;;;15.75;10.77;;;5.40;99.90;;;;;;5010254;28;20132;-61
2023/03/22 03:43:48;;;;;;;14.73;10.07;;;5.60;99.90;;;;;;5010300;28;20532;-61
2023/03/22 03:46:15;;;;;;;14.80;10.52;;;5.70;99.90;;;;;;5010534;28;20057;-60
2023/03/22 03:48:46;;;;;;;12.85;10.25;;;5.80;99.90;;;;;;5009156;28;20026;-61
2023/03/22 03:51:12;;;;;;;12.30;9.00;;;5.80;99.90;;;;;;5007997;28;20033;-60
2023/03/22 03:53:37;;;;;;;11.43;8.75;;;5.90;99.90;;;;;;5009238;28;20433;-61
2023/03/22 03:56:03;;;;;;;11.20;8.18;;;6.00;99.90;;;;;;5009643;28;20026;-61
2023/03/22 03:58:29;;;;;;;11.82;8.90;;;6.00;99.90;;;;;;5009624;28;20114;-60
2023/03/22 04:00:55;;;;;;;12.88;9.10;;;6.00;99.90;;;;;;5009662;28;20026;-61
2023/03/22 04:03:21;;;;;;;11.18;8.63;;;6.00;99.90;;;;;;5010015;28;20041;-61
2023/03/22 04:05:47;;;;;;;11.45;8.82;;;6.00;99.90;;;;;;5009281;28;20026;-60
2023/03/22 04:08:12;;;;;;;12.38;9.30;;;6.00;99.90;;;;;;5009311;28;20379;-61
2023/03/22 04:10:39;;;;;;;12.98;9.27;;;6.10;99.90;;;;;;4992111;28;20088;-60
2023/03/22 04:13:05;;;;;;;13.68;11.25;;;6.10;99.90;;;;;;5009478;28;20018;-61
2023/03/22 04:15:31;;;;;;;13.43;10.75;;;6.10;99.90;;;;;;5008787;28;20037;-61
2023/03/22 04:17:57;;;;;;;10.63;9.63;;;6.10;99.90;;;;;;5008930;28;20052;-59
2023/03/22 04:20:25;;;;;;;11.30;8.88;;;6.10;99.90;;;;;;5008805;28;20060;-62
2023/03/22 04:22:51;;;;;;;12.40;10.52;;;6.10;99.90;;;;;;5008126;28;20625;-61
2023/03/22 04:25:17;;;;;;;11.35;8.82;;;6.00;99.90;;;;;;5008982;28;20026;-61
2023/03/22 04:27:46;;;;;;;10.52;8.95;;;6.00;99.90;;;;;;5009838;28;20092;-61
2023/03/22 04:30:18;;;;;;;9.98;8.88;;;6.00;99.90;;;;;;4990344;28;20109;-61
2023/03/22 04:32:46;;;;;;;11.95;9.10;;;5.90;99.90;;;;;;5009694;28;20104;-60
2023/03/22 04:35:12;;;;;;;9.00;7.88;;;5.90;99.90;;;;;;5010089;28;20033;-59
2023/03/22 04:37:38;;;;;;;8.25;7.35;;;5.90;99.90;;;;;;5009794;28;20029;-60
2023/03/22 04:40:06;;;;;;;9.43;8.27;;;5.80;99.90;;;;;;5009549;28;20026;-61
2023/03/22 04:42:32;;;;;;;8.05;7.25;;;5.80;99.90;;;;;;5008078;28;20034;-61
2023/03/22 04:44:58;;;;;;;7.20;6.43;;;5.70;99.90;;;;;;4991303;28;20043;-60
2023/03/22 04:47:23;;;;;;;7.00;6.32;;;5.60;99.90;;;;;;5008532;28;20050;-61
2023/03/22 04:49:49;;;;;;;8.93;6.95;;;5.50;99.90;;;;;;5008992;28;20379;-61
2023/03/22 04:52:15;;;;;;;8.07;7.28;;;5.50;99.90;;;;;;5008275;28;20076;-59
2023/03/22 04:54:41;;;;;;;9.90;7.82;;;5.50;99.90;;;;;;5008780;28;20109;-60
2023/03/22 04:57:07;;;;;;;8.00;7.13;;;5.40;99.90;;;;;;4974721;28;20113;-60
2023/03/22 04:59:32;;;;;;;8.25;6.05;;;5.40;99.90;;;;;;5008215;28;20089;-60
2023/03/22 05:01:58;;;;;;;8.43;7.57;;;5.30;99.90;;;;;;5008723;28;20397;-61
2023/03/22 05:04:26;;;;;;;8.90;6.55;;;5.20;99.90;;;;;;5008288;28;20113;-62
2023/03/22 05:06:52;;;;;;;10.93;7.97;;;5.20;99.90;;;;;;5006848;28;20489;-60
2023/03/22 05:09:18;;;;;;;8.88;7.97;;;5.20;99.90;;;;;;5008656;28;20034;-61
2023/03/22 05:11:43;;;;;;;18.58;9.02;;;5.20;99.90;;;;;;5008269;28;20041;-61
2023/03/22 05:14:09;;;;;;;9.40;7.85;;;5.20;99.90;;;;;;5008368;28;20037;-60
2023/03/22 05:16:35;;;;;;;12.13;7.65;;;5.20;99.90;;;;;;4989271;28;20022;-61
2023/03/22 05:19:01;;;;;;;16.13;7.32;;;5.20;99.90;;;;;;5008410;28;20025;-61
2023/03/22 05:21:35;;;;;;;9.27;7.35;;;5.20;99.90;;;;;;5008524;28;20034;-60
2023/03/22 05:24:01;;;;;;;10.15;8.82;;;5.20;99.90;;;;;;5008429;28;20030;-61
2023/03/22 05:26:27;;;;;;;8.98;8.00;;;5.20;99.90;;;;;;5008253;28;20029;-61
2023/03/22 05:28:53;;;;;;;10.50;9.40;;;5.30;99.90;;;;;;5006284;28;20022;-60
2023/03/22 05:31:22;;;;;;;14.10;9.20;;;5.30;99.90;;;;;;5007197;28;20108;-62
2023/03/22 05:33:49;;;;;;;12.25;10.30;;;5.40;99.90;;;;;;5008620;28;20029;-60
2023/03/22 05:36:16;;;;;;;11.48;8.80;;;5.50;99.90;;;;;;5007252;28;20506;-61
2023/03/22 05:38:43;;;;;;;12.65;9.77;;;5.60;99.90;;;;;;5008098;28;20034;-61
2023/03/22 05:41:09;;;;;;;10.05;9.13;;;5.60;99.90;;;;;;5007600;28;20019;-61
2023/03/22 05:43:35;;;;;;;13.50;10.65;;;5.70;99.90;;;;;;5008153;28;20038;-61
2023/03/22 05:46:08;;;;;;;10.77;9.68;;;5.70;99.90;;;;;;5008318;28;20076;-60
2023/03/22 05:48:35;;;;;;;11.27;10.18;;;5.70;99.90;;;;;;5007831;28;20026;-61
2023/03/22 05:51:02;;;;;;;11.82;10.43;;;5.70;99.90;;;;;;5008058;28;20022;-61
2023/03/22 05:53:28;;;;;;;12.77;11.15;;;5.70;99.90;;;;;;5007016;28;20038;-59
2023/03/22 05:55:56;;;;;;;14.73;11.13;;;5.70;99.90;;;;;;5007757;28;20026;-60
2023/03/22 05:58:23;;;;;;;15.02;10.68;;;5.80;99.90;;;;;;5007485;28;20038;-60
2023/03/22 06:00:50;;;;;;;11.82;10.05;;;5.80;99.90;;;;;;5007919;28;20018;-61
2023/03/22 06:03:17;;;;;;;10.10;9.05;;;5.90;99.90;;;;;;5007457;28;20032;-61
2023/03/22 06:05:42;;;;;;;11.15;10.07;;;5.90;99.90;;;;;;5006960;28;20065;-61
2023/03/22 06:08:08;;;;;;;11.35;9.73;;;5.90;99.90;;;;;;5007369;28;20056;-61
2023/03/22 06:10:34;;;;;;;11.40;10.18;;;5.90;99.90;;;;;;5007571;28;20030;-61
2023/03/22 06:13:00;;;;;;;13.15;9.32;;;6.00;99.90;;;;;;5008519;28;20072;-60
2023/03/22 06:15:25;;;;;;;15.73;9.68;;;6.00;99.90;;;;;;5009448;28;20577;-59
2023/03/22 06:17:51;;;;;;;11.77;10.27;;;6.00;99.90;;;;;;5011354;28;20037;-60
2023/03/22 06:20:18;;;;;;;15.98;11.57;;;6.00;99.90;;;;;;5011831;28;20024;-60
2023/03/22 06:22:43;;;;;;;14.82;11.60;;;6.00;99.90;;;;;;5011765;28;20069;-60
2023/03/22 06:25:10;;;;;;;12.20;10.93;;;6.10;99.90;;;;;;5011622;28;20489;-60
2023/03/22 06:27:36;;;;;;;14.23;10.77;;;6.10;99.90;;;;;;5012146;28;20014;-59
2023/03/22 06:30:02;;;;;;;14.52;11.10;;;6.20;99.90;;;;;;5011570;28;20564;-61
2023/03/22 06:32:27;;;;;;;14.65;10.68;;;6.30;99.90;;;;;;5011463;28;20034;-61
2023/03/22 06:34:53;;;;;;;12.57;10.88;;;6.50;99.90;;;;;;5010824;28;20042;-61
2023/03/22 06:37:20;;;;;;;12.02;10.82;;;6.60;99.90;;;;;;5011103;28;20117;-60
2023/03/22 06:39:45;;;;;;;12.52;10.05;;;6.80;99.90;;;;;;5011769;28;20552;-61
2023/03/22 06:42:11;;;;;;;10.27;9.27;;;6.90;99.90;;;;;;5010543;28;20034;-61
2023/03/22 06:44:36;;;;;;;12.73;10.38;;;7.00;99.90;;;;;;5010374;28;20604;-61
2023/03/22 06:47:03;;;;;;;14.18;10.98;;;7.00;99.90;;;;;;5010213;28;20089;-61
2023/03/22 06:49:30;;;;;;;11.82;9.05;;;7.00;99.90;;;;;;5011241;28;20034;-61
2023/03/22 06:51:56;;;;;;;14.35;9.25;;;7.10;99.90;;;;;;5011350;28;20109;-62
2023/03/22 06:54:22;;;;;;;10.40;9.40;;;7.10;99.90;;;;;;5010443;28;20164;-61
2023/03/22 06:56:47;;;;;;;9.60;8.70;;;7.10;99.90;;;;;;5009791;28;20045;-61
2023/03/22 06:59:13;;;;;;;12.82;8.82;;;7.10;99.90;;;;;;5010414;28;20506;-62
2023/03/22 07:01:38;;;;;;;11.85;9.05;;;7.20;99.90;;;;;;5010922;28;20441;-61
2023/03/22 07:04:04;;;;;;;10.10;8.20;;;7.20;99.90;;;;;;5011180;28;20481;-60
2023/03/22 07:06:31;;;;;;;12.38;9.85;;;7.30;99.90;;;;;;5009865;28;20037;-61
2023/03/22 07:08:57;;;;;;;14.82;9.23;;;7.30;99.90;;;;;;5010449;28;20409;-59
2023/03/22 07:11:24;;;;;;;12.32;9.85;;;7.40;99.90;;;;;;5009731;28;20516;-61
2023/03/22 07:13:51;;;;;;;10.55;9.07;;;7.50;99.90;;;;;;5010352;28;20517;-60
2023/03/22 07:16:17;;;;;;;11.90;10.52;;;7.50;99.90;;;;;;5009792;28;20041;-63
2023/03/22 07:18:43;;;;;;;11.32;10.13;;;7.60;99.90;;;;;;5010737;28;20022;-63
2023/03/22 07:21:09;;;;;;;11.82;10.45;;;7.70;99.90;;;;;;5010045;28;20386;-61
2023/03/22 07:23:34;;;;;;;11.32;10.25;;;7.80;99.90;;;;;;4992456;28;20030;-61
2023/03/22 07:26:00;;;;;;;10.95;9.93;;;7.90;99.90;;;;;;5009801;28;20030;-59
2023/03/22 07:28:26;;;;;;;12.43;10.45;;;8.00;99.90;;;;;;5009001;28;22617;-58
2023/03/22 07:31:00;;;;;;;13.18;11.85;;;8.10;99.90;;;;;;5010700;28;20022;-58
2023/03/22 07:33:26;;;;;;;13.13;11.80;;;8.30;99.90;;;;;;5008279;28;20034;-57
2023/03/22 07:35:51;;;;;;;13.93;12.52;;;8.50;99.90;;;;;;5009966;28;20034;-58
2023/03/22 07:38:18;;;;;;;16.70;11.85;;;8.70;99.90;;;;;;5009574;28;20113;-58
2023/03/22 07:40:43;;;;;;;11.95;10.73;;;8.80;99.90;;;;;;4991434;28;20026;-58
2023/03/22 07:43:11;;;;;;;15.27;12.15;;;9.10;99.90;;;;;;5010042;28;20049;-60
2023/03/22 07:45:38;;;;;;;14.90;13.18;;;9.40;99.90;;;;;;5009278;28;20157;-59
2023/03/22 07:48:03;;;;;;;13.50;11.30;;;9.80;99.90;;;;;;5008175;28;20029;-59
2023/03/22 07:50:29;;;;;;;13.90;12.50;;;10.20;99.90;;;;;;5008926;28;20033;-58
2023/03/22 07:52:55;;;;;;;12.02;10.60;;;10.50;99.90;;;;;;5009693;28;20034;-59
2023/03/22 07:55:20;;;;;;;14.98;9.90;;;10.70;99.90;;;;;;5009550;28;20072;-58
2023/03/22 07:57:46;;;;;;;10.43;9.50;;;10.90;99.90;;;;;;5012079;28;20040;-59
2023/03/22 08:00:12;;;;;;;8.68;7.95;;;11.00;99.90;;;;;;5010032;28;20041;-57
2023/03/22 08:02:38;;;;;;;9.93;8.50;;;11.10;99.90;;;;;;5008283;28;20034;-59
2023/03/22 08:05:06;;;;;;;8.90;7.88;;;11.30;99.90;;;;;;5009013;28;20569;-58
2023/03/22 08:07:31;;;;;;;8.27;7.28;;;11.40;99.90;;;;;;5009375;28;20064;-58
2023/03/22 08:09:57;;;;;;;8.85;7.95;;;11.60;99.90;;;;;;5009931;28;20570;-58
2023/03/22 08:12:23;;;;;;;10.00;8.07;;;11.70;99.90;;;;;;5009694;28;20029;-59
2023/03/22 08:14:50;;;;;;;8.25;7.03;;;11.80;99.90;;;;;;5008839;28;20046;-58
2023/03/22 08:17:17;;;;;;;9.10;7.55;;;11.90;99.90;;;;;;5009240;28;20111;-59
2023/03/22 08:19:44;;;;;;;7.88;7.13;;;11.90;99.90;;;;;;5008584;28;20429;-59
2023/03/22 08:22:10;;;;;;;11.13;7.57;;;12.00;99.90;;;;;;5009590;28;20107;-58
2023/03/22 08:24:36;;;;;;;8.35;7.55;;;12.10;99.90;;;;;;5009793;28;20036;-57
2023/03/22 08:27:03;;;;;;;8.02;7.22;;;12.10;99.90;;;;;;5009151;28;20033;-57
2023/03/22 08:29:28;;;;;;;9.50;7.57;;;12.10;99.90;;;;;;5008289;28;20058;-58
2023/03/22 08:31:54;;;;;;;10.10;7.80;;;12.20;99.90;;;;;;5007238;28;20124;-58
2023/03/22 08:34:20;;;;;;;7.88;7.13;;;12.30;99.90;;;;;;5006749;28;20053;-58
2023/03/22 08:36:46;;;;;;;7.25;6.35;;;12.50;99.90;;;;;;5008382;28;20485;-58
2023/03/22 08:39:12;;;;;;;8.20;6.95;;;12.60;99.90;;;;;;5007838;28;20034;-58
2023/03/22 08:41:38;;;;;;;7.65;6.10;;;12.60;99.90;;;;;;5008373;28;20505;-58
2023/03/22 08:44:05;;;;;;;8.98;6.60;;;12.70;99.90;;;;;;5007959;28;20169;-59
2023/03/22 08:46:30;;;;;;;9.05;6.43;;;12.70;99.90;;;;;;5007952;28;20716;-59
2023/03/22 08:48:59;;;;;;;6.20;5.60;;;12.70;99.90;;;;;;4989633;28;20022;-58
2023/03/22 08:51:24;;;;;;;7.47;5.72;;;12.70;99.90;;;;;;5007716;28;20041;-58
2023/03/22 08:53:50;;;;;;;7.43;6.00;;;12.70;99.90;;;;;;5007972;28;20029;-58
2023/03/22 08:56:16;;;;;;;6.25;5.65;;;12.70;99.90;;;;;;5007534;28;20054;-58
2023/03/22 08:58:45;;;;;;;5.75;4.38;;;12.80;99.90;;;;;;5007370;28;20115;-60
2023/03/22 09:01:12;;;;;;;6.65;4.80;;;13.00;99.90;;;;;;5007671;28;20049;-58
2023/03/22 09:03:37;;;;;;;5.82;4.50;;;13.30;99.90;;;;;;5008348;28;20545;-59
2023/03/22 09:06:03;;;;;;;3.92;3.63;;;13.60;99.90;;;;;;5007479;28;20141;-59
2023/03/22 09:08:29;;;;;;;4.60;3.28;;;13.80;99.90;;;;;;4990185;28;20034;-60
2023/03/22 09:10:55;;;;;;;3.85;2.58;;;14.00;99.90;;;;;;5007783;28;20526;-60
2023/03/22 09:13:20;;;;;;;6.32;3.70;;;14.10;99.90;;;;;;5007103;28;20018;-58
2023/03/22 09:15:46;;;;;;;4.00;3.55;;;14.20;99.90;;;;;;5008317;28;20026;-59
2023/03/22 09:18:13;;;;;;;3.38;2.88;;;14.20;99.90;;;;;;5007212;28;20033;-59
2023/03/22 09:20:39;;;;;;;4.55;2.88;;;14.20;99.90;;;;;;5007531;28;20092;-59
2023/03/22 09:23:05;;;;;;;3.97;2.58;;;14.20;99.90;;;;;;5007781;28;20022;-58
2023/03/22 09:25:31;;;;;;;4.90;2.97;;;14.40;99.90;;;;;;5007118;28;20025;-59
2023/03/22 09:27:56;;;;;;;7.82;2.83;;;14.60;99.90;;;;;;5007853;28;20022;-58
2023/03/22 09:30:22;;;;;;;4.13;2.53;;;14.70;99.90;;;;;;5007178;28;20469;-60
2023/03/22 09:32:48;;;;;;;3.60;2.80;;;14.80;99.90;;;;;;5007322;28;20486;-59
2023/03/22 09:35:14;;;;;;;3.17;2.45;;;14.80;99.90;;;;;;5005994;28;20018;-58
2023/03/22 09:37:39;;;;;;;3.80;2.63;;;14.80;99.90;;;;;;5007317;28;20057;-58
2023/03/22 09:40:06;;;;;;;4.00;2.63;;;14.70;99.90;;;;;;5009584;28;20041;-58
2023/03/22 09:42:36;;;;;;;3.50;2.47;;;14.60;99.90;;;;;;5007913;28;20033;-58
2023/03/22 09:45:05;;;;;;;3.85;2.88;;;14.70;99.90;;;;;;5007248;28;20026;-59
2023/03/22 09:47:36;;;;;;;7.95;3.13;;;14.70;99.90;;;;;;5006708;28;20030;-59
2023/03/22 09:50:10;;;;;;;4.18;2.58;;;15.00;99.90;;;;;;5005956;28;20113;-57
2023/03/22 09:52:36;;;;;;;4.25;2.72;;;15.30;99.90;;;;;;5005825;28;20029;-58
2023/03/22 09:55:02;;;;;;;3.83;2.33;;;15.40;99.90;;;;;;5009647;28;20033;-58
2023/03/22 09:57:31;;;;;;;10.93;2.65;;;15.70;99.90;;;;;;4989424;28;20513;-57
2023/03/22 10:00:13;;;;;;;2.90;1.80;;;16.20;99.90;;;;;;5006054;28;20045;-59
2023/03/22 10:02:44;;;;;;;3.33;1.98;;;16.40;99.90;;;;;;5007224;28;20149;-57
2023/03/22 10:05:13;;;;;;;2.30;1.60;;;16.20;99.90;;;;;;5007439;28;20108;-58
2023/03/22 10:08:06;;;;;;;2.17;1.38;;;16.00;95.10;;;;;;5007989;28;20106;-58
2023/03/22 10:10:32;;;;;;;2.50;1.55;;;15.50;99.90;;;;;;5004941;28;20715;-57
2023/03/22 10:13:31;;;;;;;2.13;1.50;;;15.50;99.90;;;;;;4987793;28;20026;-57
2023/03/22 10:16:01;;;;;;;2.90;1.10;;;15.60;99.90;;;;;;5007503;28;20038;-60
2023/03/22 10:18:45;;;;;;;1.90;1.13;;;16.10;98.40;;;;;;5006208;28;20030;-59
2023/03/22 10:21:14;;;;;;;2.45;1.40;;;16.60;99.90;;;;;;5007037;28;20041;-57
2023/03/22 10:24:07;;;;;;;3.08;1.40;;;16.80;93.20;;;;;;5007481;28;20037;-58
2023/03/22 10:26:43;;;;;;;2.45;1.00;;;16.80;94.50;;;;;;5006858;28;20088;-59
2023/03/22 10:29:31;;;;;;;2.90;1.38;;;16.70;99.90;;;;;;5007291;28;20112;-58
2023/03/22 10:32:11;;;;;;;1.70;1.20;;;17.20;93.30;;;;;;5007131;28;20045;-60
2023/03/22 10:34:37;;;;;;;2.45;1.35;;;17.10;98.30;;;;;;5007087;28;20030;-58
2023/03/22 10:37:06;;;;;;;2.25;1.52;;;16.50;99.90;;;;;;5007750;28;20036;-57
2023/03/22 10:39:39;;;;;;;3.28;1.70;;;16.00;96.90;;;;;;5007447;28;20091;-58
2023/03/22 10:42:11;;;;;;;3.00;1.80;;;15.50;99.30;;;;;;5007245;28;20529;-57
2023/03/22 10:45:07;;;;;;;3.40;1.45;;;15.00;99.90;;;;;;5006880;28;20143;-58
2023/03/22 10:47:59;;;;;;;1.67;1.30;;;15.30;99.90;;;;;;4989435;28;20034;-58
2023/03/22 10:50:32;;;;;;;3.90;1.50;;;16.00;99.70;;;;;;5004079;28;20639;-59
2023/03/22 10:53:23;;;;;;;3.28;2.05;;;16.90;98.90;;;;;;5007145;28;20062;-59
2023/03/22 10:55:49;;;;;;;2.15;1.60;;;17.40;95.90;;;;;;5005718;28;20022;-59
2023/03/22 10:58:19;;;;;;;3.08;1.80;;;17.80;98.50;;;;;;5006966;28;20137;-59
2023/03/22 11:00:47;;;;;;;3.97;1.80;;;18.00;90.50;;;;;;5006983;28;20084;-58
2023/03/22 11:03:42;;;;;;;2.42;1.65;;;18.30;89.60;;;;;;5008379;28;20030;-59
2023/03/22 11:06:12;;;;;;;1.42;1.33;;;18.60;88.40;;;;;;5010499;28;20482;-59
2023/03/22 11:08:45;;;;;;;2.97;1.58;;;18.60;84.30;;;;;;5009949;28;20038;-58
2023/03/22 11:11:34;;;;;;;4.60;2.10;;;18.30;81.70;;;;;;5010748;28;20036;-58
2023/03/22 11:14:35;;;;;;;3.85;1.95;;;17.80;84.10;;;;;;5010062;28;20040;-59
2023/03/22 11:17:01;;;;;;;3.60;1.80;;;17.20;85.20;;;;;;4989694;28;20502;-58
2023/03/22 11:19:35;;;;;;;1.98;1.50;;;16.70;85.10;;;;;;5010303;28;20045;-57
2023/03/22 11:22:04;;;;;;;1.65;1.30;;;16.30;91.70;;;;;;5012946;28;20026;-58
2023/03/22 11:24:32;;;;;;;2.05;1.50;;;16.40;97.20;;;;;;5011666;28;20494;-58
2023/03/22 11:27:04;;;;;;;1.63;1.15;;;16.50;98.40;;;;;;5010271;28;20031;-57
2023/03/22 11:29:43;;;;;;;3.90;1.30;;;16.70;99.90;;;;;;5010537;28;20095;-58
2023/03/22 11:32:41;;;;;;;1.67;1.20;;;16.90;99.90;;;;;;5009780;28;20025;-58
2023/03/22 11:35:13;;;;;;;4.53;1.23;;;16.90;99.90;;;;;;4957303;28;20876;-58
2023/03/22 11:37:42;;;;;;;4.10;1.60;;;16.50;99.90;;;;;;5006886;28;20041;-57
2023/03/22 11:40:17;;;;;;;2.38;1.15;;;16.50;99.90;;;;;;5010336;28;20021;-57
2023/03/22 11:42:44;;;;;;;1.20;0.93;;;16.50;99.90;;;;;;5010179;28;20682;-58
2023/03/22 11:45:15;;;;;;;2.50;1.27;;;16.80;93.20;;;;;;5009935;28;20084;-58
2023/03/22 11:47:41;;;;;;;2.40;1.33;;;17.00;84.50;;;;;;5010178;28;20037;-57
2023/03/22 11:50:19;;;;;;;1.42;1.10;;;16.80;83.90;;;;;;5008034;28;20022;-56
2023/03/22 11:52:47;;;;;;;2.40;1.20;;;17.00;91.00;;;;;;5009804;28;20034;-58
2023/03/22 11:55:15;;;;;;;1.90;1.15;;;17.00;87.60;;;;;;5007890;28;20038;-58
2023/03/22 11:57:40;;;;;;;1.80;1.20;;;17.00;88.30;;;;;;5009628;28;20032;-59
2023/03/22 12:00:12;;;;;;;1.13;1.10;;;16.90;95.00;;;;;;5008407;28;20553;-58
2023/03/22 12:02:58;;;;;;;3.20;1.50;;;16.70;99.90;;;;;;5008994;28;20030;-59
2023/03/22 12:05:27;;;;;;;1.58;0.98;;;16.80;97.10;;;;;;4998519;28;20038;-59
2023/03/22 12:08:31;;;;;;;1.50;1.00;;;17.00;90.10;;;;;;4991555;28;20113;-59
2023/03/22 12:11:05;;;;;;;1.40;0.90;;;17.10;91.30;;;;;;5008787;28;20456;-58
2023/03/22 12:13:35;;;;;;;2.08;1.02;;;17.20;81.90;;;;;;5008573;28;20042;-58
2023/03/22 12:16:04;;;;;;;1.35;0.90;;;17.10;83.40;;;;;;5009334;28;20045;-58
2023/03/22 12:18:43;;;;;;;1.92;0.90;;;17.00;79.90;;;;;;5006870;28;20124;-58
2023/03/22 12:21:10;;;;;;;2.20;1.30;;;16.80;84.30;;;;;;5009091;28;20039;-57
2023/03/22 12:23:37;;;;;;;2.45;1.00;;;16.60;89.00;;;;;;5008735;28;20492;-58
2023/03/22 12:26:07;;;;;;;1.60;0.98;;;16.60;94.00;;;;;;5007427;28;20497;-59
2023/03/22 12:28:54;;;;;;;2.17;0.88;;;16.60;82.80;;;;;;5007106;28;20064;-59
2023/03/22 12:31:26;;;;;;;3.00;1.00;;;16.60;80.40;;;;;;5008573;28;20486;-58
2023/03/22 12:33:59;;;;;;;1.30;0.98;;;16.70;95.90;;;;;;5008410;28;20080;-58
2023/03/22 12:36:40;;;;;;;0.63;0.60;;;16.60;92.10;;;;;;5007045;28;20033;-60
2023/03/22 12:39:12;;;;;;;1.77;0.80;;;16.70;85.10;;;;;;5008699;28;20029;-58
2023/03/22 12:41:46;;;;;;;2.50;0.80;;;17.00;91.00;;;;;;4989783;28;20038;-58
2023/03/22 12:44:17;;;;;;;4.82;0.95;;;17.20;78.70;;;;;;5007988;28;20029;-59
2023/03/22 12:46:56;;;;;;;2.20;0.82;;;17.20;75.90;;;;;;5007735;28;20030;-59
2023/03/22 12:49:28;;;;;;;1.80;0.90;;;17.10;75.30;;;;;;5008289;28;20391;-58
2023/03/22 12:52:05;;;;;;;2.20;1.00;;;17.00;73.60;;;;;;5008004;28;20014;-58
2023/03/22 12:54:31;;;;;;;2.20;0.90;;;16.90;74.80;;;;;;5008429;28;20542;-58
2023/03/22 12:56:57;;;;;;;1.52;0.80;;;17.20;84.50;;;;;;5004958;28;20482;-58
2023/03/22 12:59:27;;;;;;;4.25;0.98;;;17.60;90.90;;;;;;5008654;28;20030;-57
2023/03/22 13:02:17;;;;;;;1.40;0.82;;;18.00;78.10;;;;;;4991600;28;20072;-57